createdAt,value
2022-11-12T12:24:20.639Z,1022.41
2022-11-12T12:25:20.538Z,1022.33
2022-11-12T12:26:20.508Z,1022.33
2022-11-12T12:27:20.511Z,1022.30
2022-11-12T12:28:20.471Z,1022.30
2022-11-12T12:29:20.454Z,1022.29
2022-11-12T12:30:20.434Z,1022.27
2022-11-12T12:31:20.419Z,1022.26
2022-11-12T12:32:24.084Z,1022.30
2022-11-12T12:33:20.387Z,1022.25
2022-11-12T12:34:20.358Z,1022.24
2022-11-12T12:35:20.342Z,1022.19
2022-11-12T12:36:20.319Z,1022.26
2022-11-12T12:37:20.322Z,1022.23
2022-11-12T12:38:20.279Z,1022.21
2022-11-12T12:39:20.260Z,1022.23
2022-11-12T12:40:20.332Z,1022.22
2022-11-12T12:41:20.240Z,1022.20
2022-11-12T12:42:20.229Z,1022.22
2022-11-12T12:43:20.197Z,1022.23
2022-11-12T12:44:20.175Z,1022.22
2022-11-12T12:45:20.161Z,1022.18
2022-11-12T12:46:20.135Z,1022.18
2022-11-12T12:47:20.130Z,1022.15
2022-11-12T12:48:20.099Z,1022.13
2022-11-12T12:49:20.091Z,1022.13
2022-11-12T12:50:20.068Z,1022.05
2022-11-12T12:51:20.042Z,1022.03
2022-11-12T12:52:20.037Z,1022.02
2022-11-12T12:53:20.009Z,1022.06
2022-11-12T12:54:19.992Z,1022.05
2022-11-12T12:55:19.992Z,1022.06
2022-11-12T12:56:20.028Z,1022.03
2022-11-12T12:57:19.968Z,1022.08
2022-11-12T12:58:19.921Z,1022.04
2022-11-12T12:59:19.945Z,1022.02
2022-11-12T13:00:19.897Z,1022.05
2022-11-12T13:01:19.936Z,1022.02
2022-11-12T13:02:19.879Z,1022.00
2022-11-12T13:03:19.839Z,1022.03
2022-11-12T13:04:19.827Z,1021.98
2022-11-12T13:05:19.807Z,1021.96
2022-11-12T13:06:19.779Z,1021.90
2022-11-12T13:07:19.797Z,1021.92
2022-11-12T13:08:19.771Z,1021.95
2022-11-12T13:09:19.736Z,1021.90
2022-11-12T13:10:19.711Z,1021.94
2022-11-12T13:11:19.692Z,1021.95
2022-11-12T13:12:19.762Z,1021.94
2022-11-12T13:13:19.675Z,1021.94
2022-11-12T13:14:19.648Z,1021.90
2022-11-12T13:15:19.637Z,1021.89
2022-11-12T13:16:19.609Z,1021.87
2022-11-12T13:17:19.603Z,1021.86
2022-11-12T13:18:19.623Z,1021.87
2022-11-12T13:20:51.103Z,1021.84
2022-11-12T13:21:51.080Z,1021.83
2022-11-12T13:22:51.077Z,1021.83
2022-11-12T13:23:51.061Z,1021.80
2022-11-12T13:24:51.043Z,1021.83
2022-11-12T13:25:51.024Z,1021.83
2022-11-12T13:26:50.998Z,1021.80
2022-11-12T13:27:51.063Z,1021.83
2022-11-12T13:28:50.990Z,1021.79
2022-11-12T13:29:50.951Z,1021.81
2022-11-12T13:30:50.930Z,1021.80
2022-11-12T13:31:50.922Z,1021.80
2022-11-12T13:32:50.898Z,1021.77
2022-11-12T13:33:50.879Z,1021.82
2022-11-12T13:34:50.893Z,1021.82
2022-11-12T13:35:50.854Z,1021.76
2022-11-12T13:36:50.842Z,1021.76
2022-11-12T13:37:50.814Z,1021.75
2022-11-12T13:38:50.798Z,1021.71
2022-11-12T13:39:50.793Z,1021.71
2022-11-12T13:40:50.765Z,1021.69
2022-11-12T13:41:50.747Z,1021.74
